Moss Landing, California
Current Conditions -  °F | °C
As of 10:53 AM on Thursday 23 Oct 2014 (Local Time) from KWVI Reporting Station
Clear Clear  
Wind Chill: 71°   Ceiling: Unl
Heat Index: 71°   Visibility: 10mi
Dew Point: 53°   Wind: 0mph
Humidity: 53%   Direction: NA
Pressure: 30.07"   Gusts: NA
Location:  36.8°N, 121.79°W
Report Text: KWVI 231753Z AUTO 00000KT 10SM CLR 22/12 A3007 RMK AO2 SLP182 T02170117 10217 20117 50004
Loading
Personal Weather Stations






























Interactive Weather Map
Tropical Storm Tracking
New forecast layout! Learn more

10-Day Weather Forecast

Advertisements
Track Severe Weather on mobile